sensor_id;sensor_type;location;lat;lon;timestamp;P1;durP1;ratioP1;P2;durP2;ratioP2
78167;SDS011;67410;42.698;23.378;2023-12-20T00:01:54;454.20;;;186.70;;
78167;SDS011;67410;42.698;23.378;2023-12-20T00:04:21;496.58;;;197.63;;
78167;SDS011;67410;42.698;23.378;2023-12-20T00:06:47;480.98;;;197.75;;
78167;SDS011;67410;42.698;23.378;2023-12-20T00:09:13;449.05;;;182.65;;
78167;SDS011;67410;42.698;23.378;2023-12-20T00:11:39;430.75;;;168.20;;
78167;SDS011;67410;42.698;23.378;2023-12-20T00:14:07;447.60;;;171.98;;
78167;SDS011;67410;42.698;23.378;2023-12-20T00:16:34;416.77;;;166.00;;
78167;SDS011;67410;42.698;23.378;2023-12-20T00:19:00;431.10;;;157.45;;
78167;SDS011;67410;42.698;23.378;2023-12-20T00:21:26;424.42;;;147.30;;
78167;SDS011;67410;42.698;23.378;2023-12-20T00:23:52;359.75;;;132.18;;
78167;SDS011;67410;42.698;23.378;2023-12-20T00:26:18;333.38;;;120.50;;
78167;SDS011;67410;42.698;23.378;2023-12-20T00:28:44;322.77;;;116.82;;
78167;SDS011;67410;42.698;23.378;2023-12-20T00:31:10;299.60;;;100.57;;
78167;SDS011;67410;42.698;23.378;2023-12-20T00:33:36;247.18;;;98.40;;
78167;SDS011;67410;42.698;23.378;2023-12-20T00:36:02;262.90;;;105.30;;
78167;SDS011;67410;42.698;23.378;2023-12-20T00:38:29;296.05;;;102.22;;
78167;SDS011;67410;42.698;23.378;2023-12-20T00:40:55;279.27;;;99.28;;
78167;SDS011;67410;42.698;23.378;2023-12-20T00:43:21;252.25;;;100.63;;
78167;SDS011;67410;42.698;23.378;2023-12-20T00:45:47;314.35;;;109.90;;
78167;SDS011;67410;42.698;23.378;2023-12-20T00:48:14;323.88;;;108.22;;
78167;SDS011;67410;42.698;23.378;2023-12-20T00:50:40;286.52;;;98.80;;
78167;SDS011;67410;42.698;23.378;2023-12-20T00:53:06;298.33;;;106.40;;
78167;SDS011;67410;42.698;23.378;2023-12-20T00:55:32;292.33;;;101.25;;
78167;SDS011;67410;42.698;23.378;2023-12-20T00:57:58;300.73;;;102.35;;
78167;SDS011;67410;42.698;23.378;2023-12-20T01:00:25;334.02;;;103.22;;
78167;SDS011;67410;42.698;23.378;2023-12-20T01:02:51;283.75;;;101.00;;
78167;SDS011;67410;42.698;23.378;2023-12-20T01:05:18;267.50;;;99.80;;
78167;SDS011;67410;42.698;23.378;2023-12-20T01:07:44;267.75;;;96.53;;
78167;SDS011;67410;42.698;23.378;2023-12-20T01:10:11;308.58;;;98.28;;
78167;SDS011;67410;42.698;23.378;2023-12-20T01:12:37;305.33;;;106.68;;
78167;SDS011;67410;42.698;23.378;2023-12-20T01:15:03;298.50;;;102.82;;
78167;SDS011;67410;42.698;23.378;2023-12-20T01:17:29;338.65;;;108.18;;
78167;SDS011;67410;42.698;23.378;2023-12-20T01:19:55;276.65;;;102.57;;
78167;SDS011;67410;42.698;23.378;2023-12-20T01:22:21;302.85;;;103.53;;
78167;SDS011;67410;42.698;23.378;2023-12-20T01:24:48;272.67;;;98.93;;
78167;SDS011;67410;42.698;23.378;2023-12-20T01:27:14;256.80;;;96.35;;
78167;SDS011;67410;42.698;23.378;2023-12-20T01:29:40;310.95;;;103.68;;
78167;SDS011;67410;42.698;23.378;2023-12-20T01:32:06;325.23;;;110.80;;
78167;SDS011;67410;42.698;23.378;2023-12-20T01:34:32;299.17;;;107.57;;
78167;SDS011;67410;42.698;23.378;2023-12-20T01:36:58;329.67;;;109.50;;
78167;SDS011;67410;42.698;23.378;2023-12-20T01:39:26;267.77;;;94.47;;
78167;SDS011;67410;42.698;23.378;2023-12-20T01:41:52;258.05;;;89.35;;
78167;SDS011;67410;42.698;23.378;2023-12-20T01:44:18;261.83;;;96.70;;
78167;SDS011;67410;42.698;23.378;2023-12-20T01:46:44;250.75;;;93.18;;
78167;SDS011;67410;42.698;23.378;2023-12-20T01:49:12;268.67;;;94.05;;
78167;SDS011;67410;42.698;23.378;2023-12-20T01:51:38;271.20;;;95.38;;
78167;SDS011;67410;42.698;23.378;2023-12-20T01:54:05;286.92;;;106.35;;
78167;SDS011;67410;42.698;23.378;2023-12-20T01:56:32;264.65;;;98.90;;
78167;SDS011;67410;42.698;23.378;2023-12-20T01:58:59;303.20;;;105.88;;
78167;SDS011;67410;42.698;23.378;2023-12-20T02:01:26;303.20;;;105.70;;
78167;SDS011;67410;42.698;23.378;2023-12-20T02:03:54;329.05;;;109.18;;
78167;SDS011;67410;42.698;23.378;2023-12-20T02:06:21;374.67;;;117.25;;
78167;SDS011;67410;42.698;23.378;2023-12-20T02:08:50;307.52;;;109.38;;
78167;SDS011;67410;42.698;23.378;2023-12-20T02:11:16;284.13;;;97.72;;
78167;SDS011;67410;42.698;23.378;2023-12-20T02:13:42;310.80;;;111.20;;
78167;SDS011;67410;42.698;23.378;2023-12-20T02:16:08;387.30;;;116.20;;
78167;SDS011;67410;42.698;23.378;2023-12-20T02:18:34;269.73;;;95.25;;
78167;SDS011;67410;42.698;23.378;2023-12-20T02:21:00;277.23;;;100.75;;
78167;SDS011;67410;42.698;23.378;2023-12-20T02:23:26;273.13;;;97.25;;
78167;SDS011;67410;42.698;23.378;2023-12-20T02:25:52;316.27;;;100.28;;
78167;SDS011;67410;42.698;23.378;2023-12-20T02:28:18;294.67;;;97.45;;
78167;SDS011;67410;42.698;23.378;2023-12-20T02:30:44;316.02;;;104.38;;
78167;SDS011;67410;42.698;23.378;2023-12-20T02:33:11;312.85;;;108.40;;
78167;SDS011;67410;42.698;23.378;2023-12-20T02:35:39;318.48;;;103.57;;
78167;SDS011;67410;42.698;23.378;2023-12-20T02:38:05;352.83;;;111.18;;
78167;SDS011;67410;42.698;23.378;2023-12-20T02:40:32;336.38;;;106.95;;
78167;SDS011;67410;42.698;23.378;2023-12-20T02:42:58;321.15;;;110.97;;
78167;SDS011;67410;42.698;23.378;2023-12-20T02:45:24;313.35;;;106.32;;
78167;SDS011;67410;42.698;23.378;2023-12-20T02:47:51;343.70;;;113.00;;
78167;SDS011;67410;42.698;23.378;2023-12-20T02:50:17;368.48;;;116.72;;
78167;SDS011;67410;42.698;23.378;2023-12-20T02:52:44;325.00;;;109.72;;
78167;SDS011;67410;42.698;23.378;2023-12-20T02:55:10;353.60;;;119.45;;
78167;SDS011;67410;42.698;23.378;2023-12-20T02:57:36;328.95;;;116.28;;
78167;SDS011;67410;42.698;23.378;2023-12-20T03:02:36;249.07;;;92.68;;
78167;SDS011;67410;42.698;23.378;2023-12-20T03:05:02;314.02;;;108.78;;
78167;SDS011;67410;42.698;23.378;2023-12-20T03:07:29;243.07;;;95.55;;
78167;SDS011;67410;42.698;23.378;2023-12-20T03:09:55;270.70;;;100.70;;
78167;SDS011;67410;42.698;23.378;2023-12-20T03:12:21;227.68;;;93.28;;
78167;SDS011;67410;42.698;23.378;2023-12-20T03:14:47;260.65;;;92.45;;
78167;SDS011;67410;42.698;23.378;2023-12-20T03:17:14;225.45;;;93.05;;
78167;SDS011;67410;42.698;23.378;2023-12-20T03:19:40;217.45;;;89.80;;
78167;SDS011;67410;42.698;23.378;2023-12-20T03:22:06;244.23;;;87.40;;
78167;SDS011;67410;42.698;23.378;2023-12-20T03:24:32;259.42;;;94.60;;
78167;SDS011;67410;42.698;23.378;2023-12-20T03:26:58;223.73;;;86.35;;
78167;SDS011;67410;42.698;23.378;2023-12-20T03:29:24;205.90;;;82.70;;
78167;SDS011;67410;42.698;23.378;2023-12-20T03:31:50;244.25;;;87.25;;
78167;SDS011;67410;42.698;23.378;2023-12-20T03:34:17;214.77;;;82.00;;
78167;SDS011;67410;42.698;23.378;2023-12-20T03:36:44;225.40;;;83.85;;
78167;SDS011;67410;42.698;23.378;2023-12-20T03:39:10;215.90;;;88.32;;
78167;SDS011;67410;42.698;23.378;2023-12-20T03:41:36;236.90;;;89.15;;
78167;SDS011;67410;42.698;23.378;2023-12-20T03:44:02;252.27;;;99.75;;
78167;SDS011;67410;42.698;23.378;2023-12-20T03:46:28;243.30;;;92.60;;
78167;SDS011;67410;42.698;23.378;2023-12-20T03:48:54;293.38;;;103.05;;
78167;SDS011;67410;42.698;23.378;2023-12-20T03:51:20;248.57;;;102.50;;
78167;SDS011;67410;42.698;23.378;2023-12-20T03:53:46;279.88;;;109.43;;
78167;SDS011;67410;42.698;23.378;2023-12-20T03:56:12;268.15;;;108.93;;
78167;SDS011;67410;42.698;23.378;2023-12-20T03:58:38;269.10;;;99.80;;
78167;SDS011;67410;42.698;23.378;2023-12-20T04:01:08;246.57;;;98.47;;
78167;SDS011;67410;42.698;23.378;2023-12-20T04:03:38;273.33;;;97.20;;
78167;SDS011;67410;42.698;23.378;2023-12-20T04:06:04;277.15;;;102.28;;
78167;SDS011;67410;42.698;23.378;2023-12-20T04:08:30;231.05;;;96.22;;
78167;SDS011;67410;42.698;23.378;2023-12-20T04:10:57;248.13;;;104.00;;
78167;SDS011;67410;42.698;23.378;2023-12-20T04:13:23;273.50;;;106.32;;
78167;SDS011;67410;42.698;23.378;2023-12-20T04:15:49;303.77;;;114.25;;
78167;SDS011;67410;42.698;23.378;2023-12-20T04:18:16;263.13;;;98.60;;
78167;SDS011;67410;42.698;23.378;2023-12-20T04:20:42;275.77;;;101.40;;
78167;SDS011;67410;42.698;23.378;2023-12-20T04:23:08;258.10;;;97.72;;
78167;SDS011;67410;42.698;23.378;2023-12-20T04:25:34;254.13;;;96.40;;
78167;SDS011;67410;42.698;23.378;2023-12-20T04:28:01;226.98;;;88.88;;
78167;SDS011;67410;42.698;23.378;2023-12-20T04:30:27;194.93;;;79.22;;
78167;SDS011;67410;42.698;23.378;2023-12-20T04:32:53;166.10;;;65.85;;
78167;SDS011;67410;42.698;23.378;2023-12-20T04:35:19;186.93;;;68.43;;
78167;SDS011;67410;42.698;23.378;2023-12-20T04:37:45;178.85;;;67.53;;
78167;SDS011;67410;42.698;23.378;2023-12-20T04:40:11;172.25;;;71.50;;
78167;SDS011;67410;42.698;23.378;2023-12-20T04:42:37;210.52;;;78.90;;
78167;SDS011;67410;42.698;23.378;2023-12-20T04:45:03;227.52;;;77.28;;
78167;SDS011;67410;42.698;23.378;2023-12-20T04:47:30;178.25;;;66.60;;
78167;SDS011;67410;42.698;23.378;2023-12-20T04:49:56;157.05;;;59.00;;
78167;SDS011;67410;42.698;23.378;2023-12-20T04:52:22;154.60;;;58.05;;
78167;SDS011;67410;42.698;23.378;2023-12-20T04:54:48;136.90;;;54.35;;
78167;SDS011;67410;42.698;23.378;2023-12-20T04:57:14;165.00;;;58.53;;
78167;SDS011;67410;42.698;23.378;2023-12-20T04:59:40;139.80;;;54.25;;
78167;SDS011;67410;42.698;23.378;2023-12-20T05:02:07;162.93;;;56.70;;
78167;SDS011;67410;42.698;23.378;2023-12-20T05:04:33;153.07;;;56.83;;
78167;SDS011;67410;42.698;23.378;2023-12-20T05:06:59;166.00;;;58.55;;
78167;SDS011;67410;42.698;23.378;2023-12-20T05:09:25;156.18;;;59.38;;
78167;SDS011;67410;42.698;23.378;2023-12-20T05:11:51;141.55;;;53.45;;
78167;SDS011;67410;42.698;23.378;2023-12-20T05:14:17;142.45;;;51.05;;
78167;SDS011;67410;42.698;23.378;2023-12-20T05:16:43;130.57;;;50.00;;
78167;SDS011;67410;42.698;23.378;2023-12-20T05:19:09;127.75;;;46.20;;
78167;SDS011;67410;42.698;23.378;2023-12-20T05:21:35;92.22;;;34.50;;
78167;SDS011;67410;42.698;23.378;2023-12-20T05:24:02;104.03;;;34.83;;
78167;SDS011;67410;42.698;23.378;2023-12-20T05:26:28;107.22;;;35.70;;
78167;SDS011;67410;42.698;23.378;2023-12-20T05:28:56;105.82;;;38.00;;
78167;SDS011;67410;42.698;23.378;2023-12-20T05:31:22;128.18;;;37.95;;
78167;SDS011;67410;42.698;23.378;2023-12-20T05:33:48;109.65;;;38.53;;
78167;SDS011;67410;42.698;23.378;2023-12-20T05:36:14;120.45;;;38.03;;
78167;SDS011;67410;42.698;23.378;2023-12-20T05:38:40;116.93;;;35.72;;
78167;SDS011;67410;42.698;23.378;2023-12-20T05:41:06;108.82;;;38.45;;
78167;SDS011;67410;42.698;23.378;2023-12-20T05:43:33;136.82;;;43.90;;
78167;SDS011;67410;42.698;23.378;2023-12-20T05:45:59;110.93;;;38.75;;
78167;SDS011;67410;42.698;23.378;2023-12-20T05:48:25;108.82;;;37.85;;
78167;SDS011;67410;42.698;23.378;2023-12-20T05:50:51;104.53;;;37.00;;
78167;SDS011;67410;42.698;23.378;2023-12-20T05:53:17;109.03;;;37.47;;
78167;SDS011;67410;42.698;23.378;2023-12-20T05:55:43;113.28;;;44.92;;
78167;SDS011;67410;42.698;23.378;2023-12-20T05:58:09;123.93;;;47.20;;
78167;SDS011;67410;42.698;23.378;2023-12-20T06:00:35;130.50;;;48.50;;
78167;SDS011;67410;42.698;23.378;2023-12-20T06:03:01;126.93;;;48.10;;
78167;SDS011;67410;42.698;23.378;2023-12-20T06:05:28;109.32;;;44.90;;
78167;SDS011;67410;42.698;23.378;2023-12-20T06:07:54;130.20;;;50.85;;
78167;SDS011;67410;42.698;23.378;2023-12-20T06:10:22;125.25;;;49.53;;
78167;SDS011;67410;42.698;23.378;2023-12-20T06:12:48;128.43;;;45.38;;
78167;SDS011;67410;42.698;23.378;2023-12-20T06:15:15;146.10;;;49.28;;
78167;SDS011;67410;42.698;23.378;2023-12-20T06:17:41;147.95;;;56.85;;
78167;SDS011;67410;42.698;23.378;2023-12-20T06:20:08;237.90;;;61.17;;
78167;SDS011;67410;42.698;23.378;2023-12-20T06:22:35;133.52;;;48.13;;
78167;SDS011;67410;42.698;23.378;2023-12-20T06:25:02;153.63;;;47.70;;
78167;SDS011;67410;42.698;23.378;2023-12-20T06:27:28;144.85;;;50.85;;
78167;SDS011;67410;42.698;23.378;2023-12-20T06:29:55;140.45;;;48.95;;
78167;SDS011;67410;42.698;23.378;2023-12-20T06:32:21;134.88;;;45.47;;
78167;SDS011;67410;42.698;23.378;2023-12-20T06:34:49;151.57;;;46.38;;
78167;SDS011;67410;42.698;23.378;2023-12-20T06:37:15;136.43;;;43.50;;
78167;SDS011;67410;42.698;23.378;2023-12-20T06:39:41;133.35;;;46.33;;
78167;SDS011;67410;42.698;23.378;2023-12-20T06:42:07;140.85;;;47.38;;
78167;SDS011;67410;42.698;23.378;2023-12-20T06:44:33;113.50;;;42.67;;
78167;SDS011;67410;42.698;23.378;2023-12-20T06:47:00;155.73;;;46.60;;
78167;SDS011;67410;42.698;23.378;2023-12-20T06:49:26;99.22;;;36.38;;
78167;SDS011;67410;42.698;23.378;2023-12-20T06:51:52;116.85;;;38.30;;
78167;SDS011;67410;42.698;23.378;2023-12-20T06:54:19;122.93;;;37.88;;
78167;SDS011;67410;42.698;23.378;2023-12-20T06:56:45;129.30;;;43.33;;
78167;SDS011;67410;42.698;23.378;2023-12-20T06:59:11;151.63;;;40.90;;
78167;SDS011;67410;42.698;23.378;2023-12-20T07:01:37;119.07;;;44.03;;
78167;SDS011;67410;42.698;23.378;2023-12-20T07:04:03;122.70;;;41.33;;
78167;SDS011;67410;42.698;23.378;2023-12-20T07:06:29;117.07;;;41.53;;
78167;SDS011;67410;42.698;23.378;2023-12-20T07:08:55;118.82;;;41.50;;
78167;SDS011;67410;42.698;23.378;2023-12-20T07:11:21;122.05;;;40.40;;
78167;SDS011;67410;42.698;23.378;2023-12-20T07:13:47;111.32;;;39.10;;
78167;SDS011;67410;42.698;23.378;2023-12-20T07:16:14;140.85;;;43.45;;
78167;SDS011;67410;42.698;23.378;2023-12-20T07:18:40;146.68;;;48.55;;
78167;SDS011;67410;42.698;23.378;2023-12-20T07:21:06;135.15;;;48.00;;
78167;SDS011;67410;42.698;23.378;2023-12-20T07:23:33;144.38;;;47.65;;
78167;SDS011;67410;42.698;23.378;2023-12-20T07:25:59;145.73;;;52.15;;
78167;SDS011;67410;42.698;23.378;2023-12-20T07:28:25;147.43;;;52.03;;
78167;SDS011;67410;42.698;23.378;2023-12-20T07:30:51;155.50;;;60.65;;
78167;SDS011;67410;42.698;23.378;2023-12-20T07:33:18;165.50;;;60.45;;
78167;SDS011;67410;42.698;23.378;2023-12-20T07:35:44;168.55;;;53.92;;
78167;SDS011;67410;42.698;23.378;2023-12-20T07:38:10;164.57;;;58.47;;
78167;SDS011;67410;42.698;23.378;2023-12-20T07:40:37;152.82;;;56.83;;
78167;SDS011;67410;42.698;23.378;2023-12-20T07:43:04;149.15;;;55.03;;
78167;SDS011;67410;42.698;23.378;2023-12-20T07:45:30;170.95;;;57.13;;
78167;SDS011;67410;42.698;23.378;2023-12-20T07:47:57;149.23;;;56.10;;
78167;SDS011;67410;42.698;23.378;2023-12-20T07:50:23;149.35;;;55.10;;
78167;SDS011;67410;42.698;23.378;2023-12-20T07:52:49;114.82;;;42.55;;
78167;SDS011;67410;42.698;23.378;2023-12-20T07:55:15;128.38;;;41.78;;
78167;SDS011;67410;42.698;23.378;2023-12-20T07:57:41;105.68;;;41.72;;
78167;SDS011;67410;42.698;23.378;2023-12-20T08:00:07;121.03;;;42.40;;
78167;SDS011;67410;42.698;23.378;2023-12-20T08:02:34;122.28;;;42.40;;
78167;SDS011;67410;42.698;23.378;2023-12-20T08:05:00;101.75;;;41.05;;
78167;SDS011;67410;42.698;23.378;2023-12-20T08:07:26;121.65;;;43.85;;
78167;SDS011;67410;42.698;23.378;2023-12-20T08:09:52;125.20;;;45.20;;
78167;SDS011;67410;42.698;23.378;2023-12-20T08:12:20;127.80;;;44.33;;
78167;SDS011;67410;42.698;23.378;2023-12-20T08:14:46;132.18;;;44.42;;
78167;SDS011;67410;42.698;23.378;2023-12-20T08:17:12;103.18;;;42.28;;
78167;SDS011;67410;42.698;23.378;2023-12-20T08:19:38;130.52;;;45.10;;
78167;SDS011;67410;42.698;23.378;2023-12-20T08:22:04;112.78;;;41.58;;
78167;SDS011;67410;42.698;23.378;2023-12-20T08:24:31;106.45;;;41.78;;
78167;SDS011;67410;42.698;23.378;2023-12-20T08:26:57;119.50;;;43.85;;
78167;SDS011;67410;42.698;23.378;2023-12-20T08:29:23;119.10;;;42.58;;
78167;SDS011;67410;42.698;23.378;2023-12-20T08:31:52;101.82;;;42.78;;
78167;SDS011;67410;42.698;23.378;2023-12-20T08:34:19;122.30;;;45.22;;
78167;SDS011;67410;42.698;23.378;2023-12-20T08:36:45;106.38;;;39.25;;
78167;SDS011;67410;42.698;23.378;2023-12-20T08:39:11;107.82;;;39.60;;
78167;SDS011;67410;42.698;23.378;2023-12-20T08:41:38;116.97;;;39.65;;
78167;SDS011;67410;42.698;23.378;2023-12-20T08:44:04;108.38;;;40.17;;
78167;SDS011;67410;42.698;23.378;2023-12-20T08:46:30;114.28;;;43.35;;
78167;SDS011;67410;42.698;23.378;2023-12-20T08:48:56;122.03;;;45.70;;
78167;SDS011;67410;42.698;23.378;2023-12-20T08:51:22;97.28;;;36.10;;
78167;SDS011;67410;42.698;23.378;2023-12-20T08:53:51;90.57;;;35.20;;
78167;SDS011;67410;42.698;23.378;2023-12-20T08:56:17;108.10;;;42.00;;
78167;SDS011;67410;42.698;23.378;2023-12-20T08:58:44;104.88;;;38.58;;
78167;SDS011;67410;42.698;23.378;2023-12-20T09:01:11;90.82;;;34.15;;
78167;SDS011;67410;42.698;23.378;2023-12-20T09:03:37;91.55;;;33.40;;
78167;SDS011;67410;42.698;23.378;2023-12-20T09:06:03;84.80;;;31.92;;
78167;SDS011;67410;42.698;23.378;2023-12-20T09:08:29;89.90;;;33.33;;
78167;SDS011;67410;42.698;23.378;2023-12-20T09:10:55;96.35;;;38.17;;
78167;SDS011;67410;42.698;23.378;2023-12-20T09:13:22;97.13;;;34.47;;
78167;SDS011;67410;42.698;23.378;2023-12-20T09:15:56;112.35;;;37.72;;
78167;SDS011;67410;42.698;23.378;2023-12-20T09:18:22;94.72;;;35.13;;
78167;SDS011;67410;42.698;23.378;2023-12-20T09:20:49;95.28;;;34.50;;
78167;SDS011;67410;42.698;23.378;2023-12-20T09:23:16;91.68;;;34.53;;
78167;SDS011;67410;42.698;23.378;2023-12-20T09:25:43;95.20;;;37.38;;
78167;SDS011;67410;42.698;23.378;2023-12-20T09:28:09;98.70;;;38.88;;
78167;SDS011;67410;42.698;23.378;2023-12-20T09:30:36;86.45;;;35.13;;
78167;SDS011;67410;42.698;23.378;2023-12-20T09:33:05;76.70;;;24.67;;
78167;SDS011;67410;42.698;23.378;2023-12-20T09:35:32;80.20;;;28.25;;
78167;SDS011;67410;42.698;23.378;2023-12-20T09:37:59;69.28;;;25.23;;
78167;SDS011;67410;42.698;23.378;2023-12-20T09:40:25;62.50;;;23.83;;
78167;SDS011;67410;42.698;23.378;2023-12-20T09:43:04;74.85;;;25.17;;
78167;SDS011;67410;42.698;23.378;2023-12-20T09:45:36;71.18;;;26.02;;
78167;SDS011;67410;42.698;23.378;2023-12-20T09:48:03;91.22;;;33.63;;
78167;SDS011;67410;42.698;23.378;2023-12-20T09:50:30;74.30;;;27.27;;
78167;SDS011;67410;42.698;23.378;2023-12-20T09:52:58;91.95;;;33.38;;
78167;SDS011;67410;42.698;23.378;2023-12-20T09:55:26;90.60;;;33.38;;
78167;SDS011;67410;42.698;23.378;2023-12-20T09:57:56;92.10;;;34.58;;
78167;SDS011;67410;42.698;23.378;2023-12-20T10:00:22;100.72;;;31.73;;
78167;SDS011;67410;42.698;23.378;2023-12-20T10:07:57;104.22;;;40.67;;
78167;SDS011;67410;42.698;23.378;2023-12-20T10:10:24;80.35;;;31.02;;
78167;SDS011;67410;42.698;23.378;2023-12-20T10:13:10;89.90;;;33.03;;
78167;SDS011;67410;42.698;23.378;2023-12-20T10:15:37;82.13;;;32.33;;
78167;SDS011;67410;42.698;23.378;2023-12-20T10:18:04;89.95;;;36.05;;
78167;SDS011;67410;42.698;23.378;2023-12-20T10:20:31;105.72;;;38.55;;
78167;SDS011;67410;42.698;23.378;2023-12-20T10:22:58;103.25;;;39.38;;
78167;SDS011;67410;42.698;23.378;2023-12-20T10:25:25;98.38;;;38.65;;
78167;SDS011;67410;42.698;23.378;2023-12-20T10:28:08;97.82;;;36.00;;
78167;SDS011;67410;42.698;23.378;2023-12-20T10:30:36;99.70;;;36.58;;
78167;SDS011;67410;42.698;23.378;2023-12-20T10:33:02;93.30;;;35.97;;
78167;SDS011;67410;42.698;23.378;2023-12-20T10:35:28;83.07;;;36.88;;
78167;SDS011;67410;42.698;23.378;2023-12-20T10:37:55;98.05;;;40.53;;
78167;SDS011;67410;42.698;23.378;2023-12-20T10:40:25;94.97;;;39.22;;
78167;SDS011;67410;42.698;23.378;2023-12-20T10:42:55;96.68;;;41.28;;
78167;SDS011;67410;42.698;23.378;2023-12-20T10:45:22;108.40;;;45.20;;
78167;SDS011;67410;42.698;23.378;2023-12-20T10:47:49;123.63;;;48.65;;
78167;SDS011;67410;42.698;23.378;2023-12-20T10:50:16;127.05;;;53.38;;
78167;SDS011;67410;42.698;23.378;2023-12-20T10:52:45;128.88;;;50.15;;
78167;SDS011;67410;42.698;23.378;2023-12-20T10:55:12;116.75;;;51.80;;
78167;SDS011;67410;42.698;23.378;2023-12-20T10:57:38;121.25;;;52.78;;
78167;SDS011;67410;42.698;23.378;2023-12-20T11:00:06;123.35;;;51.63;;
78167;SDS011;67410;42.698;23.378;2023-12-20T11:02:39;110.00;;;50.15;;
78167;SDS011;67410;42.698;23.378;2023-12-20T11:07:47;90.82;;;39.30;;
78167;SDS011;67410;42.698;23.378;2023-12-20T11:10:26;100.85;;;41.22;;
78167;SDS011;67410;42.698;23.378;2023-12-20T11:15:54;76.68;;;33.20;;
78167;SDS011;67410;42.698;23.378;2023-12-20T11:18:20;79.30;;;35.30;;
78167;SDS011;67410;42.698;23.378;2023-12-20T11:20:55;74.25;;;32.80;;
78167;SDS011;67410;42.698;23.378;2023-12-20T11:23:25;94.03;;;41.22;;
78167;SDS011;67410;42.698;23.378;2023-12-20T11:25:52;97.45;;;40.97;;
78167;SDS011;67410;42.698;23.378;2023-12-20T11:28:23;92.13;;;40.50;;
78167;SDS011;67410;42.698;23.378;2023-12-20T11:30:54;101.28;;;41.22;;
78167;SDS011;67410;42.698;23.378;2023-12-20T11:33:25;90.40;;;37.15;;
78167;SDS011;67410;42.698;23.378;2023-12-20T11:35:55;93.15;;;39.92;;
78167;SDS011;67410;42.698;23.378;2023-12-20T11:38:21;96.82;;;40.30;;
78167;SDS011;67410;42.698;23.378;2023-12-20T11:40:48;88.78;;;36.42;;
78167;SDS011;67410;42.698;23.378;2023-12-20T11:43:31;87.20;;;39.35;;
78167;SDS011;67410;42.698;23.378;2023-12-20T11:46:08;91.97;;;37.47;;
78167;SDS011;67410;42.698;23.378;2023-12-20T11:48:36;86.47;;;35.65;;
78167;SDS011;67410;42.698;23.378;2023-12-20T11:51:11;98.18;;;38.67;;
78167;SDS011;67410;42.698;23.378;2023-12-20T11:53:40;90.03;;;37.90;;
78167;SDS011;67410;42.698;23.378;2023-12-20T11:56:08;102.18;;;44.50;;
78167;SDS011;67410;42.698;23.378;2023-12-20T11:58:34;99.97;;;41.80;;
78167;SDS011;67410;42.698;23.378;2023-12-20T12:01:01;111.05;;;43.17;;
78167;SDS011;67410;42.698;23.378;2023-12-20T12:03:28;123.35;;;44.03;;
78167;SDS011;67410;42.698;23.378;2023-12-20T12:05:54;105.72;;;42.00;;
78167;SDS011;67410;42.698;23.378;2023-12-20T12:08:20;95.53;;;40.83;;
78167;SDS011;67410;42.698;23.378;2023-12-20T12:10:46;119.15;;;46.00;;
78167;SDS011;67410;42.698;23.378;2023-12-20T12:13:12;101.75;;;43.28;;
78167;SDS011;67410;42.698;23.378;2023-12-20T12:15:40;115.05;;;46.10;;
78167;SDS011;67410;42.698;23.378;2023-12-20T12:18:07;109.55;;;44.35;;
78167;SDS011;67410;42.698;23.378;2023-12-20T12:20:34;132.80;;;48.35;;
78167;SDS011;67410;42.698;23.378;2023-12-20T12:23:01;119.38;;;43.42;;
78167;SDS011;67410;42.698;23.378;2023-12-20T12:25:29;94.63;;;39.55;;
78167;SDS011;67410;42.698;23.378;2023-12-20T12:27:59;107.90;;;40.15;;
78167;SDS011;67410;42.698;23.378;2023-12-20T12:30:26;110.85;;;41.15;;
78167;SDS011;67410;42.698;23.378;2023-12-20T12:32:53;115.97;;;42.03;;
78167;SDS011;67410;42.698;23.378;2023-12-20T12:35:21;107.45;;;38.35;;
78167;SDS011;67410;42.698;23.378;2023-12-20T12:37:48;104.60;;;37.90;;
78167;SDS011;67410;42.698;23.378;2023-12-20T12:40:14;101.72;;;38.65;;
78167;SDS011;67410;42.698;23.378;2023-12-20T12:42:42;97.93;;;38.63;;
78167;SDS011;67410;42.698;23.378;2023-12-20T12:45:10;90.32;;;35.88;;
78167;SDS011;67410;42.698;23.378;2023-12-20T12:47:39;96.10;;;40.42;;
78167;SDS011;67410;42.698;23.378;2023-12-20T12:50:05;103.55;;;39.55;;
78167;SDS011;67410;42.698;23.378;2023-12-20T12:52:32;85.22;;;35.78;;
78167;SDS011;67410;42.698;23.378;2023-12-20T12:54:58;106.63;;;39.25;;
78167;SDS011;67410;42.698;23.378;2023-12-20T12:57:24;112.78;;;44.42;;
78167;SDS011;67410;42.698;23.378;2023-12-20T12:59:51;95.72;;;35.78;;
78167;SDS011;67410;42.698;23.378;2023-12-20T13:02:17;81.18;;;32.50;;
78167;SDS011;67410;42.698;23.378;2023-12-20T13:04:44;92.63;;;34.83;;
78167;SDS011;67410;42.698;23.378;2023-12-20T13:07:10;107.10;;;40.80;;
78167;SDS011;67410;42.698;23.378;2023-12-20T13:09:37;89.40;;;34.90;;
78167;SDS011;67410;42.698;23.378;2023-12-20T13:12:04;101.00;;;38.30;;
78167;SDS011;67410;42.698;23.378;2023-12-20T13:14:33;95.40;;;36.38;;
78167;SDS011;67410;42.698;23.378;2023-12-20T13:17:00;125.40;;;38.47;;
78167;SDS011;67410;42.698;23.378;2023-12-20T13:19:27;107.70;;;39.38;;
78167;SDS011;67410;42.698;23.378;2023-12-20T13:21:53;111.70;;;33.17;;
78167;SDS011;67410;42.698;23.378;2023-12-20T13:24:19;139.98;;;35.40;;
78167;SDS011;67410;42.698;23.378;2023-12-20T13:26:45;133.45;;;35.55;;
78167;SDS011;67410;42.698;23.378;2023-12-20T13:29:11;97.35;;;36.70;;
78167;SDS011;67410;42.698;23.378;2023-12-20T13:31:37;109.18;;;39.83;;
78167;SDS011;67410;42.698;23.378;2023-12-20T13:34:05;111.65;;;40.78;;
78167;SDS011;67410;42.698;23.378;2023-12-20T13:36:32;100.60;;;37.33;;
78167;SDS011;67410;42.698;23.378;2023-12-20T13:38:58;98.60;;;36.03;;
78167;SDS011;67410;42.698;23.378;2023-12-20T13:41:24;99.32;;;38.90;;
78167;SDS011;67410;42.698;23.378;2023-12-20T13:43:50;107.97;;;35.50;;
78167;SDS011;67410;42.698;23.378;2023-12-20T13:46:16;140.57;;;35.15;;
78167;SDS011;67410;42.698;23.378;2023-12-20T13:48:42;135.77;;;38.75;;
78167;SDS011;67410;42.698;23.378;2023-12-20T13:51:08;130.73;;;34.47;;
78167;SDS011;67410;42.698;23.378;2023-12-20T13:53:35;190.48;;;37.67;;
78167;SDS011;67410;42.698;23.378;2023-12-20T13:56:01;106.55;;;31.92;;
78167;SDS011;67410;42.698;23.378;2023-12-20T13:58:27;102.90;;;36.20;;
78167;SDS011;67410;42.698;23.378;2023-12-20T14:00:53;126.95;;;36.45;;
78167;SDS011;67410;42.698;23.378;2023-12-20T14:03:19;149.27;;;43.95;;
78167;SDS011;67410;42.698;23.378;2023-12-20T14:05:45;144.13;;;42.17;;
78167;SDS011;67410;42.698;23.378;2023-12-20T14:08:11;191.45;;;44.15;;